Time;durP1;ratioP1;P1;durP2;ratioP2;P2;SDS_P1;SDS_P2;PMS_P1;PMS_P2;Temp;Humidity;BMP_temperature;BMP_pressure;BME280_temperature;BME280_humidity;BME280_pressure;Samples;Min_cycle;Max_cycle;Signal;HPM_P1;HPM_P2
2024/02/04 00:00:49;;;;;;;18.20;17.60;;;10.00;99.90;;;;;;5050178;28;20472;-74
2024/02/04 00:03:19;;;;;;;17.23;16.63;;;9.90;99.90;;;;;;5046496;28;20512;-74
2024/02/04 00:05:46;;;;;;;17.87;17.27;;;9.90;99.90;;;;;;5049074;28;20563;-73
2024/02/04 00:08:16;;;;;;;17.90;17.30;;;9.90;99.90;;;;;;5058814;28;20830;-73
2024/02/04 00:10:43;;;;;;;18.07;17.47;;;9.90;99.90;;;;;;5058801;28;20493;-74
2024/02/04 00:13:10;;;;;;;18.37;17.70;;;10.00;99.90;;;;;;5047434;28;20965;-73
2024/02/04 00:15:38;;;;;;;17.83;17.23;;;10.00;99.90;;;;;;5051950;28;20457;-77
2024/02/04 00:18:06;;;;;;;19.10;18.40;;;10.00;99.90;;;;;;5051111;28;20463;-73
2024/02/04 00:20:34;;;;;;;17.87;17.27;;;9.90;99.90;;;;;;5044734;28;20483;-72
2024/02/04 00:23:01;;;;;;;18.00;17.40;;;9.90;99.90;;;;;;5049194;28;20488;-75
2024/02/04 00:25:29;;;;;;;18.87;18.17;;;9.90;99.90;;;;;;5048764;28;20472;-73
2024/02/04 00:27:56;;;;;;;17.93;17.33;;;9.90;99.90;;;;;;5051321;28;20453;-74
2024/02/04 00:30:23;;;;;;;17.67;17.07;;;9.90;99.90;;;;;;5051647;28;20467;-75
2024/02/04 00:32:51;;;;;;;17.50;16.90;;;9.90;99.90;;;;;;5053165;28;20633;-76
2024/02/04 00:35:17;;;;;;;17.23;16.63;;;9.90;99.90;;;;;;5052749;28;20519;-73
2024/02/04 00:37:45;;;;;;;16.90;16.30;;;9.90;99.90;;;;;;5047269;28;20468;-73
2024/02/04 00:40:15;;;;;;;16.03;15.53;;;9.90;99.90;;;;;;5053200;28;20454;-73
2024/02/04 00:42:42;;;;;;;15.37;14.87;;;9.90;99.90;;;;;;5058886;28;20537;-73
2024/02/04 00:45:13;;;;;;;15.67;15.17;;;9.90;99.90;;;;;;5058123;28;20948;-73
2024/02/04 00:47:40;;;;;;;15.30;14.80;;;9.90;99.90;;;;;;5048691;28;20467;-76
2024/02/04 00:50:08;;;;;;;15.40;14.90;;;9.90;99.90;;;;;;5048447;28;20476;-75
2024/02/04 00:52:36;;;;;;;15.70;15.20;;;9.90;99.90;;;;;;5051866;28;20550;-73
2024/02/04 00:55:04;;;;;;;16.30;15.80;;;9.90;99.90;;;;;;5051333;28;20732;-74
2024/02/04 00:57:31;;;;;;;16.13;15.63;;;9.90;99.90;;;;;;5047909;28;20479;-73
2024/02/04 00:59:57;;;;;;;15.60;15.10;;;9.90;99.90;;;;;;5047407;28;20470;-72
2024/02/04 01:02:28;;;;;;;15.57;15.07;;;9.90;99.90;;;;;;5048345;28;20493;-74
2024/02/04 01:04:56;;;;;;;15.37;14.87;;;9.90;99.90;;;;;;5056863;28;20455;-74
2024/02/04 01:07:23;;;;;;;15.90;15.40;;;9.90;99.90;;;;;;5050122;28;20548;-74
2024/02/04 01:09:50;;;;;;;15.23;14.73;;;9.90;99.90;;;;;;5045609;28;20847;-74
2024/02/04 01:12:20;;;;;;;15.83;15.33;;;9.90;99.90;;;;;;5049319;28;20527;-73
2024/02/04 01:14:47;;;;;;;14.93;14.53;;;9.90;99.90;;;;;;5051218;28;20839;-74
2024/02/04 01:17:14;;;;;;;15.50;15.00;;;9.90;99.90;;;;;;5051088;28;20496;-74
2024/02/04 01:19:41;;;;;;;15.90;15.40;;;9.90;99.90;;;;;;5050978;28;20457;-72
2024/02/04 01:22:07;;;;;;;15.50;15.00;;;9.90;99.90;;;;;;5052568;28;21194;-74
2024/02/04 01:24:34;;;;;;;15.40;14.90;;;9.90;99.90;;;;;;5053640;28;20495;-73
2024/02/04 01:27:01;;;;;;;15.30;14.80;;;9.90;99.90;;;;;;5044411;28;20207;-73
2024/02/04 01:29:30;;;;;;;15.00;14.57;;;9.90;99.90;;;;;;5049277;28;20952;-73
2024/02/04 01:31:56;;;;;;;16.20;15.70;;;9.90;99.90;;;;;;5049650;28;20904;-72
2024/02/04 01:34:26;;;;;;;15.03;14.60;;;9.90;99.90;;;;;;5054043;28;20474;-73
2024/02/04 01:36:53;;;;;;;15.43;14.93;;;9.90;99.90;;;;;;5049715;28;20465;-74
2024/02/04 01:39:20;;;;;;;15.80;15.30;;;10.00;99.90;;;;;;5049125;28;20464;-74
2024/02/04 01:41:47;;;;;;;15.17;14.67;;;9.90;99.90;;;;;;5048093;28;20861;-74
2024/02/04 01:44:13;;;;;;;15.83;15.33;;;10.00;99.90;;;;;;5055549;28;20608;-76
2024/02/04 01:46:44;;;;;;;15.13;14.63;;;10.00;99.90;;;;;;5053725;28;20563;-75
2024/02/04 01:49:11;;;;;;;15.90;15.40;;;10.00;99.90;;;;;;5058078;28;20458;-73
2024/02/04 01:51:38;;;;;;;15.80;15.30;;;10.00;99.90;;;;;;5043968;28;20472;-74
2024/02/04 01:54:09;;;;;;;15.63;15.13;;;10.00;99.90;;;;;;5053176;28;20964;-75
2024/02/04 01:56:38;;;;;;;16.10;15.60;;;10.00;99.90;;;;;;5051981;28;20484;-73
2024/02/04 01:59:05;;;;;;;16.27;15.77;;;10.00;99.90;;;;;;5050701;28;20482;-74
2024/02/04 02:01:33;;;;;;;15.43;14.93;;;10.00;99.90;;;;;;5048107;28;20998;-73
2024/02/04 02:04:10;;;;;;;15.73;15.23;;;10.00;99.90;;;;;;5045927;28;20490;-76
2024/02/04 02:06:41;;;;;;;15.63;15.13;;;10.10;99.90;;;;;;5048917;28;20471;-73
2024/02/04 02:09:12;;;;;;;16.53;16.03;;;10.10;99.90;;;;;;5048555;28;20454;-74
2024/02/04 02:11:43;;;;;;;17.43;16.83;;;10.10;99.90;;;;;;5047409;28;21098;-72
2024/02/04 02:14:17;;;;;;;17.00;16.40;;;10.10;99.90;;;;;;5059163;28;20554;-74
2024/02/04 02:16:47;;;;;;;17.57;16.97;;;10.10;99.90;;;;;;5052212;28;20497;-74
2024/02/04 02:19:37;;;;;;;16.33;15.83;;;10.10;99.90;;;;;;5044103;28;20460;-74
2024/02/04 02:22:15;;;;;;;16.30;15.80;;;10.10;99.90;;;;;;5045864;28;20530;-72
2024/02/04 02:24:44;;;;;;;16.73;16.17;;;10.10;99.90;;;;;;5051356;28;21115;-72
2024/02/04 02:27:11;;;;;;;16.53;16.00;;;10.10;99.90;;;;;;5055538;28;20481;-74
2024/02/04 02:29:41;;;;;;;17.20;16.60;;;10.10;99.90;;;;;;5049806;28;20458;-76
2024/02/04 02:32:11;;;;;;;17.43;16.83;;;10.20;99.90;;;;;;5050315;28;20460;-73
2024/02/04 02:34:37;;;;;;;17.27;16.67;;;10.10;99.90;;;;;;5050081;28;20476;-73
2024/02/04 02:37:14;;;;;;;17.20;16.60;;;10.20;99.90;;;;;;5054681;28;20460;-73
2024/02/04 02:39:50;;;;;;;17.13;16.53;;;10.20;99.90;;;;;;5056141;28;20478;-74
2024/02/04 02:42:19;;;;;;;16.80;16.20;;;10.10;99.90;;;;;;5054671;28;20545;-73
2024/02/04 02:44:47;;;;;;;17.50;16.90;;;10.10;99.90;;;;;;5053760;28;20490;-74
2024/02/04 02:47:15;;;;;;;16.53;16.03;;;10.20;99.90;;;;;;5058136;28;20551;-74
2024/02/04 02:49:42;;;;;;;17.53;16.93;;;10.20;99.90;;;;;;5053690;28;20477;-74
2024/02/04 02:52:10;;;;;;;17.30;16.70;;;10.20;99.90;;;;;;5046349;28;20469;-75
2024/02/04 02:54:38;;;;;;;16.50;16.00;;;10.20;99.90;;;;;;5051839;28;20892;-77
2024/02/04 02:57:06;;;;;;;16.63;16.13;;;10.20;99.90;;;;;;5054363;28;21050;-73
2024/02/04 02:59:34;;;;;;;17.00;16.40;;;10.20;99.90;;;;;;5055120;28;20587;-73
2024/02/04 03:02:00;;;;;;;16.93;16.33;;;10.20;99.90;;;;;;5058796;28;20968;-74
2024/02/04 03:04:27;;;;;;;16.80;16.20;;;10.20;99.90;;;;;;5058914;28;20487;-74
2024/02/04 03:06:54;;;;;;;16.27;15.77;;;10.20;99.90;;;;;;5046759;28;20478;-74
2024/02/04 03:09:22;;;;;;;16.57;16.00;;;10.20;99.90;;;;;;5051192;28;20478;-73
2024/02/04 03:11:51;;;;;;;16.60;16.03;;;10.20;99.90;;;;;;5050049;28;20555;-74
2024/02/04 03:14:21;;;;;;;16.53;16.00;;;10.20;99.90;;;;;;5051630;28;20539;-76
2024/02/04 03:16:48;;;;;;;16.63;16.03;;;10.20;99.90;;;;;;5055449;28;20472;-71
2024/02/04 03:19:16;;;;;;;17.17;16.57;;;10.20;99.90;;;;;;5060706;28;20468;-72
2024/02/04 03:21:43;;;;;;;16.70;16.10;;;10.20;99.90;;;;;;5052689;28;20455;-72
2024/02/04 03:24:10;;;;;;;16.90;16.30;;;10.30;99.90;;;;;;5044432;28;20497;-73
2024/02/04 03:26:37;;;;;;;16.80;16.20;;;10.20;99.90;;;;;;5063248;28;21034;-73
2024/02/04 03:29:05;;;;;;;16.43;15.93;;;10.20;99.90;;;;;;5051042;28;20463;-73
2024/02/04 03:31:34;;;;;;;16.17;15.67;;;10.20;99.90;;;;;;5048221;28;20461;-72
2024/02/04 03:34:01;;;;;;;17.10;16.50;;;10.30;99.90;;;;;;5056687;28;20468;-72
2024/02/04 03:36:28;;;;;;;16.90;16.30;;;10.20;99.90;;;;;;5048236;28;20496;-76
2024/02/04 03:38:56;;;;;;;17.20;16.60;;;10.30;99.90;;;;;;5048243;28;20886;-70
2024/02/04 03:41:23;;;;;;;17.60;17.00;;;10.30;99.90;;;;;;5047646;28;20465;-74
2024/02/04 03:43:49;;;;;;;17.33;16.73;;;10.30;99.90;;;;;;5055140;28;20484;-75
2024/02/04 03:46:16;;;;;;;17.50;16.90;;;10.30;99.90;;;;;;5049088;28;20481;-73
2024/02/04 03:48:45;;;;;;;17.10;16.50;;;10.30;99.90;;;;;;5053757;28;20470;-73
2024/02/04 03:51:17;;;;;;;16.90;16.30;;;10.20;99.90;;;;;;5047396;28;20456;-73
2024/02/04 03:53:44;;;;;;;17.43;16.83;;;10.30;99.90;;;;;;5049562;28;20457;-74
2024/02/04 03:56:11;;;;;;;17.00;16.40;;;10.30;99.90;;;;;;5048274;28;20983;-72
2024/02/04 03:58:37;;;;;;;17.30;16.70;;;10.30;99.90;;;;;;5053853;28;20568;-74
2024/02/04 04:01:05;;;;;;;19.00;18.20;;;10.30;99.90;;;;;;5049387;28;20472;-72
2024/02/04 04:03:31;;;;;;;18.90;18.20;;;10.30;99.90;;;;;;5053468;28;20506;-75
2024/02/04 04:06:00;;;;;;;18.73;18.03;;;10.30;99.90;;;;;;5046878;28;20944;-73
2024/02/04 04:08:26;;;;;;;18.20;17.50;;;10.30;99.90;;;;;;5052745;28;20456;-71
2024/02/04 04:10:54;;;;;;;18.33;17.63;;;10.30;99.90;;;;;;5055434;28;20468;-73
2024/02/04 04:13:21;;;;;;;18.30;17.60;;;10.30;99.90;;;;;;5051642;28;20449;-72
2024/02/04 04:15:48;;;;;;;17.93;17.33;;;10.40;99.90;;;;;;5056115;28;20478;-72
2024/02/04 04:18:15;;;;;;;17.63;17.03;;;10.30;99.90;;;;;;5054034;28;20502;-72
2024/02/04 04:20:41;;;;;;;17.00;16.40;;;10.30;99.90;;;;;;5054302;28;20480;-74
2024/02/04 04:23:11;;;;;;;17.40;16.80;;;10.30;99.90;;;;;;5051477;28;20878;-71
2024/02/04 04:25:38;;;;;;;17.30;16.70;;;10.30;99.90;;;;;;5053460;28;20519;-72
2024/02/04 04:28:05;;;;;;;16.83;16.23;;;10.30;99.90;;;;;;5054113;28;20445;-72
2024/02/04 04:30:32;;;;;;;16.43;15.93;;;10.30;99.90;;;;;;5046612;28;20489;-73
2024/02/04 04:32:59;;;;;;;17.60;17.00;;;10.30;99.90;;;;;;5049574;28;20959;-72
2024/02/04 04:35:26;;;;;;;17.20;16.60;;;10.30;99.90;;;;;;5052430;28;20742;-71
2024/02/04 04:37:53;;;;;;;17.50;16.90;;;10.30;99.90;;;;;;5051303;28;20463;-72
2024/02/04 04:40:21;;;;;;;17.90;17.30;;;10.30;99.90;;;;;;5050285;28;20467;-73
2024/02/04 04:42:48;;;;;;;17.07;16.47;;;10.30;99.90;;;;;;5053521;28;20458;-71
2024/02/04 04:45:15;;;;;;;17.43;16.83;;;10.20;99.90;;;;;;5051983;28;20532;-75
2024/02/04 04:47:42;;;;;;;17.10;16.50;;;10.30;99.90;;;;;;5053626;28;20468;-72
2024/02/04 04:50:09;;;;;;;17.40;16.80;;;10.30;99.90;;;;;;5050574;28;20459;-72
2024/02/04 04:52:36;;;;;;;17.60;17.00;;;10.30;99.90;;;;;;5052076;28;20494;-72
2024/02/04 04:55:03;;;;;;;17.80;17.20;;;10.30;99.90;;;;;;5056504;28;20455;-71
2024/02/04 04:57:31;;;;;;;17.17;16.57;;;10.20;99.90;;;;;;5054045;28;20565;-71
2024/02/04 05:00:06;;;;;;;17.87;17.27;;;10.30;99.90;;;;;;5052242;28;20477;-71
2024/02/04 05:02:32;;;;;;;18.30;17.60;;;10.20;99.90;;;;;;5048685;28;20874;-73
2024/02/04 05:04:59;;;;;;;17.93;17.33;;;10.30;99.90;;;;;;5050447;28;20587;-71
2024/02/04 05:07:26;;;;;;;18.77;18.07;;;10.30;99.90;;;;;;5048438;28;20469;-72
2024/02/04 05:09:53;;;;;;;18.30;17.60;;;10.30;99.90;;;;;;5048855;28;20465;-71
2024/02/04 05:12:20;;;;;;;18.63;17.93;;;10.40;99.90;;;;;;5050727;28;20852;-71
2024/02/04 05:14:48;;;;;;;18.97;18.27;;;10.40;99.90;;;;;;5051517;28;20459;-71
2024/02/04 05:17:14;;;;;;;18.20;17.50;;;10.40;99.90;;;;;;5052610;28;20471;-72
2024/02/04 05:19:42;;;;;;;18.50;17.80;;;10.40;99.90;;;;;;5052368;28;20468;-71
2024/02/04 05:22:09;;;;;;;18.57;17.87;;;10.40;99.90;;;;;;5051625;28;20465;-71
2024/02/04 05:24:36;;;;;;;18.83;18.13;;;10.40;99.90;;;;;;5046036;28;20495;-72
2024/02/04 05:27:04;;;;;;;18.30;17.60;;;10.40;99.90;;;;;;5053000;28;20448;-71
2024/02/04 05:29:31;;;;;;;18.97;18.27;;;10.40;99.90;;;;;;5048607;28;20460;-73
2024/02/04 05:31:59;;;;;;;17.53;16.93;;;10.40;99.90;;;;;;5061066;28;20944;-73
2024/02/04 05:34:26;;;;;;;18.10;17.40;;;10.40;99.90;;;;;;5051621;28;20460;-72
2024/02/04 05:36:53;;;;;;;18.40;17.70;;;10.40;99.90;;;;;;5055146;28;20956;-75
2024/02/04 05:39:20;;;;;;;17.70;17.10;;;10.40;99.90;;;;;;5054188;28;20920;-72
2024/02/04 05:41:46;;;;;;;18.07;17.37;;;10.30;99.90;;;;;;5053208;28;20464;-72
2024/02/04 05:44:13;;;;;;;18.33;17.63;;;10.40;99.90;;;;;;5050434;28;20512;-71
2024/02/04 05:46:40;;;;;;;18.87;18.17;;;10.40;99.90;;;;;;5048282;28;20460;-72
2024/02/04 05:49:09;;;;;;;18.27;17.57;;;10.40;99.90;;;;;;5046970;28;20465;-71
2024/02/04 05:51:40;;;;;;;19.40;18.60;;;10.40;99.90;;;;;;5051152;28;20463;-71
2024/02/04 05:54:07;;;;;;;18.97;18.27;;;10.30;99.90;;;;;;5049245;28;20874;-71
2024/02/04 05:56:34;;;;;;;18.80;18.10;;;10.30;99.90;;;;;;5050589;28;20471;-73
2024/02/04 05:59:01;;;;;;;17.70;17.10;;;10.30;99.90;;;;;;5054713;28;20495;-75
2024/02/04 06:01:28;;;;;;;19.07;18.37;;;10.30;99.90;;;;;;5051747;28;20815;-73
2024/02/04 06:03:55;;;;;;;18.70;18.00;;;10.30;99.90;;;;;;5053173;28;20459;-74
2024/02/04 06:06:23;;;;;;;18.40;17.70;;;10.30;99.90;;;;;;5055448;28;20865;-75
2024/02/04 06:08:50;;;;;;;19.23;18.53;;;10.30;99.90;;;;;;5051290;28;20458;-71
2024/02/04 06:11:17;;;;;;;17.53;16.93;;;10.30;99.90;;;;;;5049121;28;20577;-71
2024/02/04 06:13:45;;;;;;;17.87;17.27;;;10.30;99.90;;;;;;5058192;28;20506;-74
2024/02/04 06:16:12;;;;;;;17.70;17.10;;;10.30;99.90;;;;;;5048760;28;20839;-71
2024/02/04 06:18:40;;;;;;;18.00;17.40;;;10.30;99.90;;;;;;5052765;28;20695;-72
2024/02/04 06:21:07;;;;;;;18.60;17.90;;;10.30;99.90;;;;;;5051258;28;20829;-71
2024/02/04 06:23:35;;;;;;;18.77;18.07;;;10.30;99.90;;;;;;5056586;28;20449;-75
2024/02/04 06:26:02;;;;;;;18.97;18.27;;;10.30;99.90;;;;;;5050107;28;20496;-73
2024/02/04 06:28:29;;;;;;;18.17;17.50;;;10.30;99.90;;;;;;5050518;28;20463;-73
2024/02/04 06:30:57;;;;;;;17.90;17.30;;;10.30;99.90;;;;;;5055979;28;20857;-74
2024/02/04 06:33:24;;;;;;;17.70;17.10;;;10.30;99.90;;;;;;5048072;28;20462;-75
2024/02/04 06:35:51;;;;;;;17.53;16.93;;;10.30;99.90;;;;;;5053594;28;20474;-74
2024/02/04 06:38:18;;;;;;;17.47;16.87;;;10.30;99.90;;;;;;5050594;28;20810;-73
2024/02/04 06:40:46;;;;;;;17.20;16.60;;;10.30;99.90;;;;;;5054044;28;20501;-73
2024/02/04 06:43:13;;;;;;;16.87;16.27;;;10.20;99.90;;;;;;5057853;28;20548;-77
2024/02/04 06:45:41;;;;;;;17.80;17.20;;;10.30;99.90;;;;;;5053229;28;20858;-73
2024/02/04 06:48:09;;;;;;;17.00;16.40;;;10.20;99.90;;;;;;5056102;28;20451;-75
2024/02/04 06:50:37;;;;;;;16.77;16.17;;;10.20;99.90;;;;;;5061272;28;20709;-72
2024/02/04 06:53:04;;;;;;;16.77;16.17;;;10.20;99.90;;;;;;5056041;28;20497;-75
2024/02/04 06:55:31;;;;;;;15.80;15.30;;;10.20;99.90;;;;;;5052506;28;20462;-72
2024/02/04 06:57:59;;;;;;;15.80;15.30;;;10.20;99.90;;;;;;5052625;28;20502;-74
2024/02/04 07:00:26;;;;;;;14.90;14.50;;;10.20;99.90;;;;;;5053439;28;20451;-73
2024/02/04 07:02:52;;;;;;;14.60;14.20;;;10.10;99.90;;;;;;5054236;28;20461;-73
2024/02/04 07:05:21;;;;;;;15.37;14.87;;;10.20;99.90;;;;;;5047930;28;20495;-74
2024/02/04 07:07:48;;;;;;;15.63;15.13;;;10.20;99.90;;;;;;5051457;28;20499;-73
2024/02/04 07:10:15;;;;;;;15.53;15.03;;;10.20;99.90;;;;;;5051354;28;20901;-72
2024/02/04 07:12:42;;;;;;;14.90;14.50;;;10.10;99.90;;;;;;5049528;28;20886;-77
2024/02/04 07:15:10;;;;;;;15.10;14.60;;;10.20;99.90;;;;;;5057447;28;20549;-73
2024/02/04 07:17:37;;;;;;;16.57;16.03;;;10.20;99.90;;;;;;5058903;28;20551;-74
2024/02/04 07:20:05;;;;;;;15.90;15.40;;;10.20;99.90;;;;;;5052032;28;20457;-74
2024/02/04 07:22:31;;;;;;;15.63;15.13;;;10.10;99.90;;;;;;5057002;28;20466;-74
2024/02/04 07:24:58;;;;;;;15.73;15.23;;;10.10;99.90;;;;;;5048721;28;20527;-77
2024/02/04 07:27:25;;;;;;;16.60;16.00;;;10.10;99.90;;;;;;5055611;28;20459;-75
2024/02/04 07:29:54;;;;;;;16.30;15.80;;;10.10;99.90;;;;;;5049571;28;20475;-75
2024/02/04 07:32:23;;;;;;;17.30;16.70;;;10.10;99.90;;;;;;5050400;28;20477;-76
2024/02/04 07:34:50;;;;;;;17.00;16.40;;;10.20;99.90;;;;;;5055293;28;20957;-73
2024/02/04 07:37:18;;;;;;;16.30;15.80;;;10.20;99.90;;;;;;5060184;28;20466;-74
2024/02/04 07:39:45;;;;;;;17.60;17.00;;;10.20;99.90;;;;;;5044980;28;20509;-73
2024/02/04 07:42:13;;;;;;;17.60;17.00;;;10.20;99.90;;;;;;5051435;28;20989;-72
2024/02/04 07:44:39;;;;;;;17.87;17.17;;;10.20;99.90;;;;;;5050137;28;21039;-72
2024/02/04 07:47:06;;;;;;;16.73;16.13;;;10.20;99.90;;;;;;5052647;28;20452;-72
2024/02/04 07:49:35;;;;;;;16.80;16.20;;;10.20;99.90;;;;;;5052429;28;20974;-74
2024/02/04 07:52:01;;;;;;;17.13;16.53;;;10.20;99.90;;;;;;5053354;28;20465;-73
2024/02/04 07:54:29;;;;;;;17.20;16.60;;;10.20;99.90;;;;;;5054665;28;20544;-73
2024/02/04 07:56:56;;;;;;;16.43;15.93;;;10.20;99.90;;;;;;5047137;28;20544;-73
2024/02/04 07:59:23;;;;;;;16.57;16.07;;;10.20;99.90;;;;;;5054115;28;21058;-74
2024/02/04 08:01:50;;;;;;;16.20;15.70;;;10.20;99.90;;;;;;5058111;28;20877;-73
2024/02/04 08:04:17;;;;;;;16.63;16.03;;;10.20;99.90;;;;;;5054037;28;20476;-72
2024/02/04 08:06:46;;;;;;;16.87;16.27;;;10.20;99.90;;;;;;5058075;28;20669;-73
2024/02/04 08:09:13;;;;;;;15.83;15.33;;;10.20;99.90;;;;;;5050505;28;20477;-73
2024/02/04 08:11:40;;;;;;;15.60;15.10;;;10.30;99.90;;;;;;5048915;28;20461;-73
2024/02/04 08:14:07;;;;;;;14.90;14.50;;;10.30;99.90;;;;;;5052378;28;20470;-74
2024/02/04 08:16:34;;;;;;;16.80;16.20;;;10.20;99.90;;;;;;5047738;28;20456;-74
2024/02/04 08:19:01;;;;;;;16.40;15.90;;;10.20;99.90;;;;;;5055014;28;20843;-74
2024/02/04 08:21:31;;;;;;;15.37;14.87;;;10.30;99.90;;;;;;5051554;28;20475;-74
2024/02/04 08:24:02;;;;;;;15.30;14.80;;;10.30;99.90;;;;;;5049719;28;20543;-76
2024/02/04 08:26:32;;;;;;;15.47;14.97;;;10.30;99.90;;;;;;5044972;28;21083;-76
2024/02/04 08:28:59;;;;;;;15.43;14.93;;;10.30;99.90;;;;;;5043629;28;20476;-72
2024/02/04 08:31:26;;;;;;;16.27;15.77;;;10.40;99.90;;;;;;5046534;28;20460;-73
2024/02/04 08:33:53;;;;;;;16.13;15.63;;;10.40;99.90;;;;;;5052265;28;20476;-75
2024/02/04 08:36:20;;;;;;;15.50;15.00;;;10.40;99.90;;;;;;5050098;28;20540;-74
2024/02/04 08:38:47;;;;;;;16.20;15.70;;;10.50;99.90;;;;;;5058451;28;20988;-73
2024/02/04 08:41:15;;;;;;;16.03;15.53;;;10.50;99.90;;;;;;5046450;28;20641;-73
2024/02/04 08:43:42;;;;;;;15.47;14.97;;;10.60;99.90;;;;;;5048656;28;20465;-71
2024/02/04 08:46:09;;;;;;;16.33;15.83;;;10.50;99.90;;;;;;5053842;28;20482;-71
2024/02/04 08:48:37;;;;;;;16.60;16.10;;;10.50;99.90;;;;;;5050921;28;20467;-71
2024/02/04 08:51:04;;;;;;;17.00;16.40;;;10.50;99.90;;;;;;5049189;28;20460;-75
2024/02/04 08:53:30;;;;;;;15.97;15.47;;;10.50;99.90;;;;;;5051977;28;20472;-73
2024/02/04 08:55:57;;;;;;;16.17;15.67;;;10.50;99.90;;;;;;5052596;28;20459;-71
2024/02/04 08:58:25;;;;;;;17.27;16.67;;;10.50;99.90;;;;;;5054255;28;20492;-72
2024/02/04 09:00:52;;;;;;;16.83;16.30;;;10.60;99.90;;;;;;5046917;28;21126;-71
2024/02/04 09:05:59;;;;;;;16.53;16.03;;;10.60;99.90;;;;;;5056954;28;20835;-73
2024/02/04 09:08:26;;;;;;;17.50;16.90;;;10.60;99.90;;;;;;5048157;28;20489;-72
2024/02/04 09:10:53;;;;;;;17.33;16.73;;;10.60;99.90;;;;;;5047365;28;20619;-72
2024/02/04 09:13:20;;;;;;;18.23;17.60;;;10.60;99.90;;;;;;5058331;28;20463;-73
2024/02/04 09:15:48;;;;;;;18.00;17.40;;;10.60;99.90;;;;;;5055189;28;20731;-71
2024/02/04 09:18:15;;;;;;;17.67;17.07;;;10.50;99.90;;;;;;5045919;28;20981;-74
2024/02/04 09:20:41;;;;;;;16.97;16.37;;;10.60;99.90;;;;;;5049400;28;20470;-72
2024/02/04 09:23:08;;;;;;;16.40;15.90;;;10.60;99.90;;;;;;5037571;28;20853;-73
2024/02/04 09:25:35;;;;;;;16.30;15.80;;;10.60;99.90;;;;;;5051269;28;20480;-72
2024/02/04 09:28:02;;;;;;;17.20;16.60;;;10.70;99.90;;;;;;5049605;28;20959;-72
2024/02/04 09:30:29;;;;;;;17.30;16.70;;;10.70;99.90;;;;;;5045592;28;20481;-73
2024/02/04 09:32:57;;;;;;;16.90;16.30;;;10.80;99.90;;;;;;5045860;28;20467;-73
2024/02/04 09:35:24;;;;;;;16.10;15.60;;;10.90;99.90;;;;;;5053838;28;20521;-73
2024/02/04 09:37:51;;;;;;;16.00;15.50;;;10.90;99.90;;;;;;5044856;28;20460;-74
2024/02/04 09:40:19;;;;;;;15.67;15.17;;;11.00;99.90;;;;;;5050096;28;20466;-75
2024/02/04 09:42:45;;;;;;;15.00;14.60;;;11.00;99.90;;;;;;5047359;28;20510;-75
2024/02/04 09:45:15;;;;;;;15.50;15.00;;;11.10;99.90;;;;;;5049069;28;21080;-73
2024/02/04 09:47:45;;;;;;;15.33;14.83;;;11.10;99.90;;;;;;5051421;28;20462;-74
2024/02/04 09:50:14;;;;;;;15.47;14.97;;;11.00;99.90;;;;;;5047259;28;20468;-73
2024/02/04 09:52:46;;;;;;;14.70;14.30;;;11.00;99.90;;;;;;5041675;28;20484;-72
2024/02/04 09:55:16;;;;;;;15.57;15.07;;;10.90;99.90;;;;;;5050054;28;20475;-75
2024/02/04 10:00:25;;;;;;;15.63;15.13;;;10.80;99.90;;;;;;5048470;28;20459;-73
2024/02/04 10:02:54;;;;;;;14.40;14.00;;;10.90;99.90;;;;;;5049944;28;20474;-73
2024/02/04 10:05:22;;;;;;;15.70;15.20;;;10.80;99.90;;;;;;5050235;28;20985;-72
2024/02/04 10:07:49;;;;;;;16.37;15.87;;;10.90;99.90;;;;;;5046729;28;20485;-72
2024/02/04 10:10:16;;;;;;;15.57;15.07;;;10.90;99.90;;;;;;5053799;28;20475;-72
2024/02/04 10:12:44;;;;;;;15.23;14.73;;;10.90;99.90;;;;;;5047825;28;20997;-71
2024/02/04 10:15:13;;;;;;;15.23;14.73;;;11.00;99.90;;;;;;5055016;28;20461;-72
2024/02/04 10:17:44;;;;;;;14.10;13.70;;;11.00;99.90;;;;;;5058433;28;20500;-72
2024/02/04 10:20:12;;;;;;;12.17;11.87;;;10.90;99.90;;;;;;5046879;28;20931;-72
2024/02/04 10:22:40;;;;;;;13.03;12.73;;;11.00;99.90;;;;;;5045701;28;20631;-72
2024/02/04 10:25:08;;;;;;;13.70;13.30;;;11.00;99.90;;;;;;5050872;28;21073;-73
2024/02/04 10:27:35;;;;;;;13.77;13.37;;;11.10;99.90;;;;;;5047040;28;20514;-75
2024/02/04 10:30:02;;;;;;;12.63;12.33;;;11.20;99.90;;;;;;5045461;28;20463;-72
2024/02/04 10:32:29;;;;;;;13.20;12.90;;;11.30;99.90;;;;;;5049687;28;20559;-73
2024/02/04 10:34:58;;;;;;;12.47;12.17;;;11.30;99.90;;;;;;5053196;28;20587;-72
2024/02/04 10:37:25;;;;;;;12.60;12.30;;;11.30;99.90;;;;;;5044493;28;20838;-74
2024/02/04 10:39:53;;;;;;;12.23;11.93;;;11.30;99.90;;;;;;5045731;28;20486;-73
2024/02/04 10:42:26;;;;;;;11.40;11.20;;;11.20;99.90;;;;;;5043731;28;20970;-72
2024/02/04 10:44:55;;;;;;;12.17;11.87;;;11.10;99.90;;;;;;5055411;28;20485;-73
2024/02/04 10:47:27;;;;;;;10.73;10.53;;;11.10;99.90;;;;;;5049125;28;21020;-72
2024/02/04 10:49:54;;;;;;;9.73;9.53;;;11.10;99.90;;;;;;5054239;28;20471;-75
2024/02/04 10:52:24;;;;;;;9.07;8.97;;;11.00;99.90;;;;;;5049934;28;20459;-73
2024/02/04 10:54:53;;;;;;;9.13;9.03;;;11.10;99.90;;;;;;5051329;28;20499;-73
2024/02/04 10:57:22;;;;;;;9.33;9.13;;;11.10;99.90;;;;;;5049931;28;20514;-73
2024/02/04 11:00:08;;;;;;;9.50;9.30;;;11.10;99.90;;;;;;5043844;28;20521;-72
2024/02/04 11:02:36;;;;;;;10.20;10.00;;;11.00;99.90;;;;;;5053907;28;20831;-75
2024/02/04 11:05:05;;;;;;;9.97;9.77;;;11.20;99.90;;;;;;5054391;28;20822;-72
2024/02/04 11:07:33;;;;;;;9.93;9.73;;;11.30;99.90;;;;;;5050327;28;20858;-73
2024/02/04 11:10:02;;;;;;;10.00;9.80;;;11.30;99.90;;;;;;5050874;28;20467;-72
2024/02/04 11:12:31;;;;;;;12.27;11.97;;;11.40;99.90;;;;;;5049616;28;20601;-71
2024/02/04 11:15:01;;;;;;;13.47;13.07;;;11.30;99.90;;;;;;5046978;28;20476;-73
2024/02/04 11:18:02;;;;;;;13.60;13.20;;;11.30;99.90;;;;;;5046693;28;20511;-72
2024/02/04 11:20:45;;;;;;;15.10;14.60;;;11.20;99.90;;;;;;5047144;28;20828;-72
2024/02/04 11:23:32;;;;;;;14.03;13.63;;;11.10;99.90;;;;;;5051380;28;20492;-72
2024/02/04 11:26:04;;;;;;;14.33;13.93;;;11.10;99.90;;;;;;5048171;28;20494;-72
2024/02/04 11:28:31;;;;;;;14.70;14.30;;;11.20;99.90;;;;;;5052863;28;20978;-73
2024/02/04 11:30:57;;;;;;;14.43;14.03;;;11.10;99.90;;;;;;5049895;28;20497;-73
2024/02/04 11:33:24;;;;;;;14.47;14.07;;;11.00;99.90;;;;;;5054653;28;21609;-75
2024/02/04 11:36:03;;;;;;;14.30;13.90;;;10.90;99.90;;;;;;5051732;28;20475;-73
2024/02/04 11:38:32;;;;;;;13.90;13.50;;;10.90;99.90;;;;;;5053611;28;20464;-70
2024/02/04 11:41:01;;;;;;;14.17;13.77;;;10.90;99.90;;;;;;5040902;28;21181;-72
2024/02/04 11:43:27;;;;;;;14.10;13.70;;;10.90;99.90;;;;;;5047429;28;20460;-73
2024/02/04 11:45:55;;;;;;;14.07;13.67;;;10.90;99.90;;;;;;5049190;28;20930;-76
2024/02/04 11:48:30;;;;;;;14.70;14.30;;;10.90;99.90;;;;;;5051168;28;20947;-73
2024/02/04 11:51:00;;;;;;;15.03;14.53;;;10.90;99.90;;;;;;5053903;28;20455;-72
2024/02/04 11:53:28;;;;;;;15.00;14.50;;;10.80;99.90;;;;;;5052664;28;20562;-72
2024/02/04 11:55:56;;;;;;;14.20;13.80;;;10.80;99.90;;;;;;5051905;28;21228;-73
2024/02/04 11:58:26;;;;;;;14.20;13.80;;;10.80;99.90;;;;;;5052048;28;20768;-73
2024/02/04 12:00:57;;;;;;;14.70;14.30;;;10.90;99.90;;;;;;5056291;28;20454;-72
2024/02/04 12:03:30;;;;;;;14.53;14.13;;;10.80;99.90;;;;;;5047351;28;20475;-73
2024/02/04 12:05:57;;;;;;;14.17;13.77;;;10.70;99.90;;;;;;5046420;28;22430;-75
2024/02/04 12:08:28;;;;;;;14.37;13.97;;;10.80;99.90;;;;;;5051363;28;20442;-73
2024/02/04 12:10:56;;;;;;;13.47;13.07;;;10.70;99.90;;;;;;5052851;28;20807;-73
2024/02/04 12:13:24;;;;;;;14.03;13.63;;;10.70;99.90;;;;;;5049268;28;20466;-74
2024/02/04 12:15:51;;;;;;;14.40;14.00;;;10.80;99.90;;;;;;5051606;28;20463;-73
2024/02/04 12:18:19;;;;;;;14.13;13.73;;;10.80;99.90;;;;;;5053088;28;20476;-78
2024/02/04 12:20:48;;;;;;;13.43;13.03;;;10.70;99.90;;;;;;5060261;28;20485;-73
2024/02/04 12:23:15;;;;;;;13.10;12.80;;;10.80;99.90;;;;;;5047252;28;20496;-75
2024/02/04 12:25:42;;;;;;;13.53;13.13;;;10.90;99.90;;;;;;5047990;28;20458;-74
2024/02/04 12:28:09;;;;;;;13.90;13.50;;;10.80;99.90;;;;;;5048107;28;20503;-74
2024/02/04 12:30:38;;;;;;;13.87;13.47;;;10.90;99.90;;;;;;5057925;28;20456;-76
2024/02/04 12:33:06;;;;;;;12.87;12.57;;;10.80;99.90;;;;;;5053830;28;20460;-72
2024/02/04 12:35:33;;;;;;;14.20;13.80;;;10.80;99.90;;;;;;5049655;28;20486;-73
2024/02/04 12:38:00;;;;;;;13.63;13.23;;;10.70;99.90;;;;;;5051652;28;20463;-73